Time;durP1;ratioP1;P1;durP2;ratioP2;P2;SDS_P1;SDS_P2;PMS_P1;PMS_P2;Temp;Humidity;BMP_temperature;BMP_pressure;BME280_temperature;BME280_humidity;BME280_pressure;Samples;Min_cycle;Max_cycle;Signal;HPM_P1;HPM_P2
2022/07/06 00:01:55;;;;;;;11.40;2.60;;;;;;;15.98;100.00;99271.84;5048983;28;20248;-96
2022/07/06 00:04:21;;;;;;;9.55;2.10;;;;;;;16.14;100.00;99264.47;5047690;28;20025;-96
2022/07/06 00:06:47;;;;;;;8.65;1.90;;;;;;;16.17;100.00;99252.09;5038347;28;20319;-95
2022/07/06 00:09:14;;;;;;;8.63;2.15;;;;;;;16.15;100.00;99250.41;5034968;28;20036;-95
2022/07/06 00:11:39;;;;;;;9.20;2.30;;;;;;;16.02;100.00;99253.31;5034613;28;20034;-96
2022/07/06 00:14:05;;;;;;;7.80;2.15;;;;;;;16.67;100.00;99253.50;5032885;28;20029;-95
2022/07/06 00:16:31;;;;;;;7.82;2.38;;;;;;;16.88;100.00;99252.97;5040380;28;20648;-95
2022/07/06 00:18:56;;;;;;;9.55;2.42;;;;;;;16.42;100.00;99253.25;5072708;28;20100;-96
2022/07/06 00:21:22;;;;;;;8.23;2.60;;;;;;;16.24;100.00;99239.63;5036403;28;20057;-95
2022/07/06 00:23:51;;;;;;;9.50;3.10;;;;;;;16.25;100.00;99251.06;5063808;28;20034;-95
2022/07/06 00:26:18;;;;;;;9.25;2.65;;;;;;;16.37;100.00;99245.50;5068441;28;20021;-94
2022/07/06 00:28:44;;;;;;;10.18;3.88;;;;;;;16.46;100.00;99239.13;5068758;28;20092;-95
2022/07/06 00:31:10;;;;;;;9.18;3.80;;;;;;;16.29;100.00;99232.50;5035400;28;20025;-96
2022/07/06 00:33:35;;;;;;;8.80;3.38;;;;;;;16.26;100.00;99231.72;5066195;28;20026;-95
2022/07/06 00:36:01;;;;;;;7.82;2.90;;;;;;;16.30;100.00;99217.59;5032743;28;20775;-95
2022/07/06 00:38:27;;;;;;;9.68;3.20;;;;;;;16.23;100.00;99216.00;5036488;28;20110;-94
2022/07/06 00:40:53;;;;;;;9.07;3.10;;;;;;;16.42;100.00;99217.25;5032041;28;20021;-96
2022/07/06 00:43:23;;;;;;;8.70;2.97;;;;;;;16.23;100.00;99210.72;5067381;28;20099;-96
2022/07/06 00:45:49;;;;;;;7.72;3.00;;;;;;;16.13;100.00;99210.97;5036093;28;20018;-94
2022/07/06 00:48:15;;;;;;;10.70;3.28;;;;;;;16.33;100.00;99209.63;5035533;28;20079;-95
2022/07/06 00:50:41;;;;;;;9.27;2.88;;;;;;;16.17;100.00;99215.25;5034194;28;20036;-96
2022/07/06 00:53:08;;;;;;;8.90;3.10;;;;;;;16.21;100.00;99218.66;5038607;28;20029;-96
2022/07/06 00:55:39;;;;;;;10.45;3.63;;;;;;;15.68;100.00;99219.00;5038495;28;20049;-96
2022/07/06 00:58:06;;;;;;;10.07;3.88;;;;;;;15.66;100.00;99205.03;5073996;28;20032;-95
2022/07/06 01:00:32;;;;;;;8.48;3.50;;;;;;;15.75;100.00;99204.81;5058834;28;20029;-95
2022/07/06 01:03:00;;;;;;;10.35;3.60;;;;;;;15.64;100.00;99201.56;5042727;28;20021;-95
2022/07/06 01:05:27;;;;;;;8.23;3.00;;;;;;;15.72;100.00;99207.53;5074164;28;20025;-95
2022/07/06 01:07:56;;;;;;;9.43;2.88;;;;;;;15.73;100.00;99211.00;5030737;28;20033;-95
2022/07/06 01:10:25;;;;;;;6.80;2.10;;;;;;;16.08;100.00;99223.38;5030393;28;20025;-95
2022/07/06 01:12:50;;;;;;;6.93;2.22;;;;;;;16.02;100.00;99220.91;5064918;28;20097;-94
2022/07/06 01:15:22;;;;;;;5.90;1.65;;;;;;;16.60;100.00;99226.44;5045346;28;20044;-96
2022/07/06 01:17:50;;;;;;;6.15;2.03;;;;;;;16.64;100.00;99233.38;5037953;28;20025;-96
2022/07/06 01:20:22;;;;;;;4.07;1.30;;;;;;;16.57;100.00;99239.72;5031751;28;20090;-96
2022/07/06 01:22:52;;;;;;;5.50;1.50;;;;;;;16.80;100.00;99220.66;5060891;28;20033;-95
2022/07/06 01:25:21;;;;;;;4.95;1.20;;;;;;;17.28;100.00;99242.22;5047666;28;20044;-96
2022/07/06 01:27:47;;;;;;;5.82;1.20;;;;;;;16.95;100.00;99242.25;5035735;28;20039;-95
2022/07/06 01:30:16;;;;;;;4.45;1.25;;;;;;;16.64;100.00;99246.53;5030289;28;20071;-95
2022/07/06 01:32:42;;;;;;;4.35;1.23;;;;;;;17.20;100.00;99239.81;5033213;28;20029;-94
2022/07/06 01:35:11;;;;;;;3.78;1.05;;;;;;;17.37;100.00;99228.78;5035671;28;20029;-95
2022/07/06 01:37:37;;;;;;;4.20;1.00;;;;;;;17.35;100.00;99235.88;5035407;28;20135;-95
2022/07/06 01:40:05;;;;;;;4.07;1.20;;;;;;;16.98;100.00;99224.59;5066611;28;20032;-96
2022/07/06 01:42:30;;;;;;;3.08;0.93;;;;;;;16.67;100.00;99214.88;5065006;28;20030;-94
2022/07/06 01:44:56;;;;;;;4.13;1.00;;;;;;;16.64;100.00;99206.19;5028277;28;20021;-95
2022/07/06 01:47:22;;;;;;;4.82;1.20;;;;;;;16.69;100.00;99194.63;5034976;28;20037;-96
2022/07/06 01:49:53;;;;;;;3.75;1.02;;;;;;;16.62;100.00;99195.69;5032554;28;20143;-95
2022/07/06 01:52:19;;;;;;;5.22;1.40;;;;;;;16.35;100.00;99176.22;5052776;28;20033;-95
2022/07/06 01:54:44;;;;;;;4.68;1.20;;;;;;;16.13;100.00;99168.00;5030429;28;20622;-96
2022/07/06 01:57:10;;;;;;;4.68;1.35;;;;;;;16.29;100.00;99169.34;5032894;28;20140;-96
2022/07/06 01:59:36;;;;;;;5.20;1.50;;;;;;;16.09;100.00;99171.59;5062852;28;20092;-94
2022/07/06 02:02:05;;;;;;;4.68;1.30;;;;;;;16.06;100.00;99166.44;5031409;28;20061;-95
2022/07/06 02:04:31;;;;;;;6.95;1.58;;;;;;;16.26;100.00;99177.31;5068906;28;20101;-95
2022/07/06 02:06:56;;;;;;;4.63;1.30;;;;;;;16.25;100.00;99170.31;5066014;28;20025;-94
2022/07/06 02:09:22;;;;;;;5.05;1.27;;;;;;;16.25;100.00;99161.56;5044874;28;20021;-95
2022/07/06 02:11:52;;;;;;;2.80;0.85;;;;;;;16.29;100.00;99153.53;5044291;28;20024;-96
2022/07/06 02:14:18;;;;;;;5.03;1.00;;;;;;;16.58;100.00;99149.28;5066646;28;20048;-96
2022/07/06 02:16:43;;;;;;;3.33;0.93;;;;;;;16.43;100.00;99141.81;5032976;28;20029;-96
2022/07/06 02:19:10;;;;;;;2.70;0.80;;;;;;;16.58;100.00;99138.75;5070523;28;20022;-96
2022/07/06 02:21:35;;;;;;;2.65;0.73;;;;;;;16.62;100.00;99134.25;5039945;28;20033;-94
2022/07/06 02:24:01;;;;;;;5.55;1.20;;;;;;;16.46;100.00;99133.81;5034722;28;20025;-95
2022/07/06 02:26:26;;;;;;;5.10;1.30;;;;;;;16.47;100.00;99138.19;5070214;28;20029;-96
2022/07/06 02:28:53;;;;;;;5.38;1.40;;;;;;;16.58;100.00;99149.28;5031076;28;20025;-96
2022/07/06 02:31:18;;;;;;;4.40;1.40;;;;;;;16.98;100.00;99135.03;5066207;28;20068;-95
2022/07/06 02:33:44;;;;;;;5.05;1.52;;;;;;;16.65;100.00;99134.19;5038653;28;20080;-96
2022/07/06 02:36:09;;;;;;;5.40;1.70;;;;;;;16.65;100.00;99134.19;5035484;28;20032;-95
2022/07/06 02:38:35;;;;;;;5.78;1.92;;;;;;;16.46;100.00;99131.19;5035087;28;20036;-96
2022/07/06 02:41:00;;;;;;;6.38;2.15;;;;;;;16.43;100.00;99123.38;5050877;28;20489;-96
2022/07/06 02:43:26;;;;;;;6.43;2.22;;;;;;;16.71;100.00;99128.72;5040040;28;20025;-95
2022/07/06 02:45:51;;;;;;;7.72;2.60;;;;;;;16.64;100.00;99119.28;5032146;28;20041;-95
2022/07/06 02:48:19;;;;;;;8.63;3.17;;;;;;;16.80;100.00;99123.22;5072523;28;20029;-95
2022/07/06 02:50:44;;;;;;;8.30;3.45;;;;;;;16.44;100.00;99125.97;5033207;28;20025;-95
2022/07/06 02:53:10;;;;;;;8.02;3.60;;;;;;;16.66;100.00;99135.88;5069651;28;20037;-95
2022/07/06 02:58:58;;;;;;;11.20;4.35;;;;;;;16.34;100.00;99149.03;5033649;28;20146;-93
2022/07/06 03:01:23;;;;;;;8.98;4.38;;;;;;;16.61;100.00;99154.47;5030852;28;20041;-93
2022/07/06 03:03:52;;;;;;;13.65;4.65;;;;;;;16.40;100.00;99148.00;5032689;28;20102;-96
2022/07/06 03:06:17;;;;;;;10.27;4.82;;;;;;;16.36;100.00;99155.09;5035813;28;20139;-95
2022/07/06 03:08:43;;;;;;;8.90;4.43;;;;;;;16.37;100.00;99151.59;5036535;28;20111;-95
2022/07/06 03:11:09;;;;;;;9.05;4.22;;;;;;;16.08;100.00;99185.69;5066035;28;20040;-95
2022/07/06 03:13:35;;;;;;;9.20;4.25;;;;;;;16.44;100.00;99175.97;5050296;28;20029;-95
2022/07/06 03:16:01;;;;;;;9.23;4.40;;;;;;;16.35;100.00;99182.34;5028945;28;20100;-95
2022/07/06 03:18:27;;;;;;;7.80;3.80;;;;;;;16.37;100.00;99183.16;5034562;28;20070;-93
2022/07/06 03:20:53;;;;;;;11.05;5.07;;;;;;;16.56;100.00;99182.66;5062072;28;21013;-94
2022/07/06 03:23:19;;;;;;;7.93;3.85;;;;;;;16.43;100.00;99178.66;5036806;28;20029;-95
2022/07/06 03:25:46;;;;;;;12.02;4.82;;;;;;;16.69;100.00;99180.59;5037241;28;20105;-95
2022/07/06 03:28:11;;;;;;;10.40;4.72;;;;;;;16.75;100.00;99172.50;5065239;28;20036;-95
2022/07/06 03:30:37;;;;;;;10.10;5.18;;;;;;;16.55;100.00;99181.81;5033874;28;20029;-94
2022/07/06 03:33:03;;;;;;;10.68;5.70;;;;;;;16.72;100.00;99191.88;5038212;28;20029;-94
2022/07/06 03:35:28;;;;;;;12.90;7.65;;;;;;;16.57;100.00;99194.09;5068141;28;20033;-94
2022/07/06 03:37:54;;;;;;;13.77;7.30;;;;;;;16.50;100.00;99194.22;5030176;28;20033;-94
2022/07/06 03:40:20;;;;;;;15.07;7.50;;;;;;;16.65;100.00;99202.66;5028864;28;20030;-93
2022/07/06 03:42:48;;;;;;;15.70;8.43;;;;;;;16.44;100.00;99193.56;5037556;28;20415;-95
2022/07/06 03:45:16;;;;;;;15.35;8.90;;;;;;;16.33;100.00;99196.47;5034244;28;20470;-94
2022/07/06 03:47:41;;;;;;;17.95;9.00;;;;;;;16.51;100.00;99195.97;5031528;28;20030;-94
2022/07/06 03:50:07;;;;;;;14.70;7.65;;;;;;;16.55;100.00;99194.13;5034999;28;20052;-93
2022/07/06 03:52:34;;;;;;;15.50;7.53;;;;;;;17.63;100.00;99182.28;5071226;28;20029;-95
2022/07/06 03:55:00;;;;;;;13.82;8.48;;;;;;;17.68;100.00;99164.56;5040870;28;20572;-94
2022/07/06 03:57:26;;;;;;;15.13;7.75;;;;;;;17.63;100.00;99171.75;5073332;28;20134;-94
2022/07/06 03:59:51;;;;;;;16.10;9.25;;;;;;;17.22;100.00;99187.91;5069147;28;20040;-95
2022/07/06 04:02:17;;;;;;;16.33;9.45;;;;;;;17.41;100.00;99182.94;5041329;28;20210;-94
2022/07/06 04:04:42;;;;;;;18.08;9.88;;;;;;;17.70;100.00;99174.16;5038448;28;20047;-95
2022/07/06 04:07:08;;;;;;;18.52;10.05;;;;;;;17.20;100.00;99177.44;5037274;28;20037;-94
2022/07/06 04:09:33;;;;;;;15.85;8.45;;;;;;;17.80;100.00;99174.72;5037784;28;20055;-94
2022/07/06 04:12:00;;;;;;;14.65;8.35;;;;;;;17.20;100.00;99180.06;5035285;28;20029;-93
2022/07/06 04:14:27;;;;;;;15.85;7.40;;;;;;;17.62;100.00;99173.53;5032507;28;20653;-94
2022/07/06 04:16:52;;;;;;;15.65;8.18;;;;;;;17.49;100.00;99166.91;5062052;28;20030;-95
2022/07/06 04:19:18;;;;;;;16.17;8.43;;;;;;;17.26;100.00;99163.19;5051304;28;20099;-95
2022/07/06 04:21:44;;;;;;;15.45;7.70;;;;;;;17.43;100.00;99151.28;5043676;28;20049;-95
2022/07/06 04:24:10;;;;;;;14.50;7.05;;;;;;;17.51;100.00;99159.81;5037227;28;20029;-94
2022/07/06 04:26:35;;;;;;;14.98;7.30;;;;;;;16.68;100.00;99161.28;5037745;28;20029;-94
2022/07/06 04:29:01;;;;;;;15.13;7.32;;;;;;;16.96;100.00;99155.25;5033592;28;20029;-95
2022/07/06 04:31:26;;;;;;;13.65;6.47;;;;;;;15.83;100.00;99167.84;5035351;28;20029;-95
2022/07/06 04:33:52;;;;;;;15.10;7.00;;;;;;;16.71;100.00;99160.34;5034197;28;20076;-94
2022/07/06 04:36:17;;;;;;;17.60;7.20;;;;;;;16.58;100.00;99154.53;5034517;28;20104;-94
2022/07/06 04:38:43;;;;;;;16.27;7.28;;;;;;;16.81;100.00;99148.66;5038920;28;20036;-94
2022/07/06 04:41:09;;;;;;;17.33;7.57;;;;;;;16.57;100.00;99147.53;5034769;28;20065;-93
2022/07/06 04:43:36;;;;;;;13.10;5.60;;;;;;;16.92;100.00;99132.56;5034077;28;20118;-95
2022/07/06 04:46:01;;;;;;;11.75;5.75;;;;;;;16.77;100.00;99122.44;5067056;28;20481;-93
2022/07/06 04:48:27;;;;;;;11.40;5.38;;;;;;;16.81;100.00;99130.22;5066648;28;20025;-94
2022/07/06 04:50:53;;;;;;;13.05;5.70;;;;;;;16.82;100.00;99136.34;5035763;28;20456;-95
2022/07/06 04:53:19;;;;;;;12.07;5.78;;;;;;;16.81;100.00;99148.66;5032320;28;20048;-93
2022/07/06 04:55:52;;;;;;;10.40;5.45;;;;;;;16.91;100.00;99157.19;5033121;28;20079;-95
2022/07/06 04:58:18;;;;;;;11.13;5.43;;;;;;;17.00;100.00;99154.28;5040200;28;20082;-93
2022/07/06 05:00:44;;;;;;;10.32;4.50;;;;;;;16.95;100.00;99152.69;5048601;28;20029;-94
2022/07/06 05:03:09;;;;;;;11.30;4.78;;;;;;;17.17;100.00;99145.88;5066950;28;20029;-93
2022/07/06 05:05:35;;;;;;;13.65;5.30;;;;;;;16.92;100.00;99144.88;5032478;28;20033;-95
2022/07/06 05:08:02;;;;;;;19.40;6.13;;;;;;;16.98;100.00;99152.59;5033972;28;20044;-94
2022/07/06 05:10:27;;;;;;;11.82;4.82;;;;;;;17.06;100.00;99151.47;5037015;28;20067;-94
2022/07/06 05:12:55;;;;;;;18.65;4.47;;;;;;;16.79;100.00;99153.09;5065055;28;20029;-94
2022/07/06 05:15:20;;;;;;;9.10;3.75;;;;;;;16.95;100.00;99158.84;5033434;28;20036;-94
2022/07/06 05:17:46;;;;;;;10.05;3.80;;;;;;;16.51;100.00;99167.00;5031794;28;20029;-94
2022/07/06 05:20:11;;;;;;;11.55;3.80;;;;;;;16.53;100.00;99161.69;5035116;28;20084;-94
2022/07/06 05:22:37;;;;;;;9.85;3.65;;;;;;;16.19;100.00;99170.50;5054609;28;20067;-92
2022/07/06 05:25:05;;;;;;;11.80;3.60;;;;;;;16.06;100.00;99175.22;5058095;28;20022;-94
2022/07/06 05:27:31;;;;;;;11.68;4.03;;;;;;;15.44;100.00;99173.97;5029830;28;20032;-93
2022/07/06 05:29:56;;;;;;;10.70;4.00;;;;;;;15.41;100.00;99194.22;5064847;28;20041;-92
2022/07/06 05:32:22;;;;;;;11.75;3.60;;;;;;;15.50;100.00;99194.88;5070109;28;20526;-93
2022/07/06 05:34:49;;;;;;;9.02;3.30;;;;;;;15.72;100.00;99199.63;5032336;28;20036;-93
2022/07/06 05:37:17;;;;;;;11.52;3.60;;;;;;;15.65;100.00;99195.41;5032116;28;20025;-93
2022/07/06 05:39:45;;;;;;;10.63;3.40;;;;;;;15.76;100.00;99196.03;5031703;28;20088;-93
2022/07/06 05:42:10;;;;;;;10.82;4.15;;;;;;;16.01;100.00;99211.28;5032431;28;20033;-92
2022/07/06 05:44:36;;;;;;;10.57;4.20;;;;;;;15.80;100.00;99210.03;5031112;28;20030;-92
2022/07/06 05:52:31;;;;;;;8.90;3.63;;;;;;;16.17;100.00;99186.31;5032330;28;20160;-91
2022/07/06 05:54:57;;;;;;;10.95;3.15;;;;;;;15.93;100.00;99189.53;5044086;28;20049;-91
2022/07/06 06:01:25;;;;;;;5.85;1.83;;;;;;;15.81;100.00;99164.38;5030493;28;20143;-90
2022/07/06 06:03:51;;;;;;;6.30;1.48;;;;;;;15.84;100.00;99157.31;5059782;28;20113;-91
2022/07/06 06:06:16;;;;;;;5.90;1.50;;;;;;;16.13;100.00;99152.22;5029374;28;20384;-92
2022/07/06 06:12:06;;;;;;;6.65;1.63;;;;;;;15.09;100.00;99166.84;5036263;28;20068;-92
2022/07/06 06:14:31;;;;;;;7.68;1.77;;;;;;;15.39;100.00;99167.94;5064029;28;20052;-94
2022/07/06 06:17:00;;;;;;;9.55;2.20;;;;;;;14.95;100.00;99183.75;5071392;28;20763;-94
2022/07/06 06:19:26;;;;;;;7.30;2.10;;;;;;;15.02;100.00;99190.59;5034448;28;20040;-95
2022/07/06 06:21:53;;;;;;;7.45;2.22;;;;;;;14.99;100.00;99193.31;5037735;28;20059;-94
2022/07/06 06:24:19;;;;;;;6.63;2.10;;;;;;;14.79;100.00;99190.19;5050284;28;20029;-94
2022/07/06 06:26:44;;;;;;;9.82;2.20;;;;;;;14.85;100.00;99196.19;5035537;28;20485;-93
2022/07/06 06:29:12;;;;;;;6.82;1.85;;;;;;;14.93;100.00;99187.31;5029177;28;20097;-92
2022/07/06 06:31:40;;;;;;;6.22;1.92;;;;;;;14.94;100.00;99179.38;5035649;28;20837;-93
2022/07/06 06:34:16;;;;;;;6.65;2.10;;;;;;;14.89;100.00;99197.03;5033669;28;20454;-94
2022/07/06 06:36:41;;;;;;;7.40;2.28;;;;;;;14.84;100.00;99201.47;5029062;28;20025;-94
2022/07/06 06:39:07;;;;;;;8.43;2.47;;;;;;;14.89;100.00;99207.53;5067963;28;20028;-93
2022/07/06 06:42:28;;;;;;;;;;;;;;;;;;;;;
2022/07/06 06:45:00;;;;;;;9.55;2.90;;;;;;;14.78;100.00;99218.22;5037088;22;20569;-95
2022/07/06 06:47:26;;;;;;;9.90;3.10;;;;;;;14.94;100.00;99204.78;5008722;28;20065;-95
2022/07/06 06:49:54;;;;;;;8.60;3.15;;;;;;;14.60;100.00;99208.91;5011888;28;20058;-96
2022/07/06 06:52:20;;;;;;;8.90;3.17;;;;;;;14.75;100.00;99220.91;5014139;28;20026;-94
2022/07/06 06:54:51;;;;;;;9.82;2.92;;;;;;;15.06;100.00;99228.19;5009431;28;20544;-94
2022/07/06 06:57:52;;;;;;;9.77;3.20;;;;;;;14.98;100.00;99235.34;5028844;28;20028;-96
2022/07/06 07:00:17;;;;;;;11.57;3.20;;;;;;;14.77;100.00;99226.13;5013747;28;20025;-92
2022/07/06 07:02:44;;;;;;;9.20;2.90;;;;;;;14.90;100.00;99243.38;5024752;28;20030;-92
2022/07/06 07:05:10;;;;;;;9.23;2.70;;;;;;;14.87;100.00;99238.19;5018637;28;20034;-94
2022/07/06 07:07:36;;;;;;;10.15;2.65;;;;;;;15.18;100.00;99234.94;5019024;28;20041;-95
2022/07/06 07:10:03;;;;;;;6.07;1.83;;;;;;;15.09;100.00;99212.38;5023193;28;20033;-94
2022/07/06 07:12:28;;;;;;;8.75;2.00;;;;;;;15.34;100.00;99210.09;5023142;28;20043;-94
2022/07/06 07:15:24;;;;;;;6.18;1.70;;;;;;;15.62;100.00;99201.59;5025587;28;20034;-94
2022/07/06 07:17:55;;;;;;;6.32;1.63;;;;;;;15.90;100.00;99190.47;5023110;28;20034;-92
2022/07/06 07:20:20;;;;;;;5.80;1.40;;;;;;;15.64;100.00;99191.06;5014548;28;20034;-93
2022/07/06 07:22:46;;;;;;;7.07;1.70;;;;;;;15.75;100.00;99183.78;5015111;28;20823;-93
2022/07/06 07:25:12;;;;;;;5.63;1.42;;;;;;;15.80;100.00;99188.97;5013933;28;20072;-93
2022/07/06 07:27:38;;;;;;;7.15;1.38;;;;;;;15.47;100.00;99191.44;5016444;28;20033;-92
2022/07/06 07:30:05;;;;;;;6.85;1.67;;;;;;;15.26;100.00;99188.38;5022829;28;20038;-96
2022/07/06 07:32:31;;;;;;;4.95;1.35;;;;;;;15.53;100.00;99204.44;5016440;28;20038;-93
2022/07/06 07:34:56;;;;;;;5.03;1.40;;;;;;;15.42;100.00;99194.19;5017189;28;20022;-93
2022/07/06 07:37:22;;;;;;;6.28;1.20;;;;;;;15.48;100.00;99190.53;5012299;28;20021;-95
2022/07/06 07:40:22;;;;;;;7.25;1.38;;;;;;;16.49;100.00;99178.47;5015981;28;20034;-94
2022/07/06 07:42:48;;;;;;;6.20;1.50;;;;;;;16.49;100.00;99179.38;4991897;28;20040;-93
2022/07/06 07:45:14;;;;;;;4.65;1.40;;;;;;;16.57;100.00;99165.13;5011313;28;20541;-93
2022/07/06 07:47:39;;;;;;;5.78;1.45;;;;;;;16.60;100.00;99165.03;5008643;28;20029;-92
2022/07/06 07:50:06;;;;;;;4.85;1.42;;;;;;;16.92;100.00;99158.03;5006459;28;20219;-92
2022/07/06 07:52:32;;;;;;;18.13;2.65;;;;;;;16.68;100.00;99170.97;5007416;28;20034;-93
2022/07/06 07:54:58;;;;;;;9.95;2.10;;;;;;;17.06;100.00;99172.56;5004125;28;20029;-90
2022/07/06 07:57:23;;;;;;;5.85;1.05;;;;;;;15.80;100.00;99176.69;5012582;28;20038;-93
2022/07/06 07:59:49;;;;;;;5.93;1.00;;;;;;;16.81;100.00;99179.38;5008135;28;20293;-92
2022/07/06 08:02:14;;;;;;;3.90;0.90;;;;;;;16.70;100.00;99177.91;5011654;28;20040;-93
2022/07/06 08:04:40;;;;;;;4.72;0.90;;;;;;;16.64;100.00;99159.63;5005937;28;20032;-93
2022/07/06 08:07:06;;;;;;;4.80;1.00;;;;;;;16.29;100.00;99171.13;5010092;28;20036;-94
2022/07/06 08:09:32;;;;;;;4.45;1.15;;;;;;;16.28;100.00;99182.53;5009362;28;20033;-91
2022/07/06 08:11:59;;;;;;;6.13;1.40;;;;;;;16.67;100.00;99183.28;5004631;28;20038;-92
2022/07/06 08:14:25;;;;;;;4.43;1.27;;;;;;;16.67;100.00;99185.03;5008757;28;20112;-94
2022/07/06 08:16:51;;;;;;;4.25;1.30;;;;;;;16.71;100.00;99189.31;5010113;28;20038;-90
2022/07/06 08:19:17;;;;;;;5.43;1.20;;;;;;;16.75;100.00;99188.31;5006185;28;20083;-90
2022/07/06 08:21:43;;;;;;;5.25;1.50;;;;;;;16.39;100.00;99185.75;5011311;28;20025;-94
2022/07/06 08:24:09;;;;;;;5.00;1.40;;;;;;;16.53;100.00;99188.91;5006264;28;20030;-91
2022/07/06 08:26:42;;;;;;;5.80;1.42;;;;;;;16.72;100.00;99173.47;5007476;28;20037;-94
2022/07/06 08:29:07;;;;;;;4.22;1.15;;;;;;;16.75;100.00;99164.63;5009898;28;20040;-93
2022/07/06 08:31:39;;;;;;;7.13;1.60;;;;;;;16.55;100.00;99171.28;5010563;28;20128;-94
2022/07/06 08:34:04;;;;;;;6.53;1.70;;;;;;;16.69;100.00;99155.13;5010448;28;20038;-94
2022/07/06 08:36:30;;;;;;;5.03;1.30;;;;;;;16.63;100.00;99162.31;5013034;28;20041;-96
2022/07/06 08:38:56;;;;;;;6.10;1.30;;;;;;;17.03;100.00;99177.03;5006037;28;20153;-91
2022/07/06 08:41:23;;;;;;;3.58;0.90;;;;;;;17.44;100.00;99182.88;5004956;28;20038;-94
2022/07/06 08:43:51;;;;;;;3.20;0.88;;;;;;;17.01;100.00;99173.59;5006700;28;20045;-95
2022/07/06 08:46:19;;;;;;;3.63;0.80;;;;;;;17.53;100.00;99171.16;5008130;28;20180;-95
2022/07/06 08:48:48;;;;;;;3.63;0.73;;;;;;;17.65;100.00;99189.25;5010815;28;20485;-92
2022/07/06 08:51:14;;;;;;;2.45;0.57;;;;;;;18.07;100.00;99177.41;5008903;28;20041;-94
2022/07/06 08:53:48;;;;;;;3.83;0.70;;;;;;;16.87;100.00;99171.31;5005620;28;20029;-94
2022/07/06 08:56:16;;;;;;;2.83;0.70;;;;;;;17.25;100.00;99174.63;5008289;28;20252;-94
2022/07/06 08:58:42;;;;;;;2.75;0.77;;;;;;;17.28;100.00;99166.63;5009680;28;20121;-96
2022/07/06 09:01:10;;;;;;;2.67;0.80;;;;;;;17.05;100.00;99178.72;5010326;28;20648;-95
2022/07/06 09:03:36;;;;;;;5.68;1.27;;;;;;;16.88;100.00;99187.13;5007347;28;20045;-95
2022/07/06 09:06:03;;;;;;;6.78;1.52;;;;;;;16.58;100.00;99185.28;5002113;28;20026;-96
2022/07/06 09:08:30;;;;;;;3.78;1.08;;;;;;;16.67;100.00;99185.91;5007264;28;20079;-93
2022/07/06 09:10:56;;;;;;;4.97;1.48;;;;;;;16.64;100.00;99185.97;5006185;28;20033;-93
2022/07/06 09:13:22;;;;;;;3.90;1.20;;;;;;;16.85;100.00;99181.03;5008287;28;20044;-92
2022/07/06 09:15:48;;;;;;;2.97;0.70;;;;;;;16.46;100.00;99181.19;5003995;28;20024;-93
2022/07/06 09:18:21;;;;;;;5.43;1.80;;;;;;;16.15;100.00;99184.63;5009402;28;20038;-94
2022/07/06 09:20:47;;;;;;;3.95;1.20;;;;;;;16.45;100.00;99188.25;5010642;28;20061;-93
2022/07/06 09:23:16;;;;;;;5.28;1.20;;;;;;;16.39;100.00;99188.38;5008618;28;20030;-93
2022/07/06 09:25:42;;;;;;;7.60;2.20;;;;;;;15.91;100.00;99213.25;5005536;28;20112;-94
2022/07/06 09:28:07;;;;;;;6.97;2.17;;;;;;;16.16;100.00;99213.53;5007715;28;20062;-94
2022/07/06 09:30:33;;;;;;;7.85;2.35;;;;;;;16.08;100.00;99207.59;5009037;28;20084;-94
2022/07/06 09:32:59;;;;;;;5.55;1.70;;;;;;;16.15;100.00;99197.78;5017518;28;20026;-96
2022/07/06 09:35:31;;;;;;;5.72;2.00;;;;;;;16.08;100.00;99198.84;5018118;28;20029;-96
2022/07/06 09:38:04;;;;;;;9.25;2.38;;;;;;;16.02;100.00;99213.88;5014114;28;20034;-95
2022/07/06 09:40:41;;;;;;;6.30;1.90;;;;;;;16.32;100.00;99214.00;5006102;28;20465;-96
2022/07/06 09:43:15;;;;;;;7.47;1.65;;;;;;;16.56;100.00;99224.81;5014585;28;20041;-95
2022/07/06 09:45:42;;;;;;;5.90;1.58;;;;;;;16.95;100.00;99200.09;5005674;28;20058;-94
2022/07/06 09:48:21;;;;;;;4.93;1.38;;;;;;;16.88;100.00;99188.84;5008606;28;20038;-96
2022/07/06 09:51:02;;;;;;;4.53;1.23;;;;;;;16.29;100.00;99189.53;5008708;28;20018;-96
2022/07/06 09:53:28;;;;;;;6.22;1.50;;;;;;;16.75;100.00;99187.47;5010144;28;20037;-95
2022/07/06 09:55:57;;;;;;;3.42;1.05;;;;;;;17.16;100.00;99182.81;5016654;23;20057;-94
2022/07/06 09:58:23;;;;;;;4.10;0.98;;;;;;;17.13;100.00;99170.63;4987233;28;20045;-94
2022/07/06 10:00:49;;;;;;;3.42;1.00;;;;;;;17.10;100.00;99151.38;5009189;28;20037;-94
2022/07/06 10:03:17;;;;;;;6.13;1.20;;;;;;;16.62;100.00;99140.41;5005431;28;20034;-93
2022/07/06 10:05:46;;;;;;;3.65;0.93;;;;;;;16.69;100.00;99125.28;5007925;28;20042;-93
2022/07/06 10:08:13;;;;;;;4.07;0.90;;;;;;;17.19;100.00;99119.50;4991063;28;20026;-92
2022/07/06 10:10:41;;;;;;;4.53;1.08;;;;;;;16.91;100.00;99129.97;4993223;28;20034;-94
2022/07/06 10:13:09;;;;;;;3.38;0.90;;;;;;;17.08;100.00;99148.78;4995048;28;20122;-93
2022/07/06 10:15:37;;;;;;;6.05;1.10;;;;;;;16.66;100.00;99135.88;4997530;28;20034;-93
2022/07/06 10:18:07;;;;;;;4.45;1.10;;;;;;;17.01;100.00;99148.09;4992444;28;20026;-92
2022/07/06 10:20:36;;;;;;;3.50;1.10;;;;;;;17.20;100.00;99158.09;4985500;28;20026;-91
2022/07/06 10:23:04;;;;;;;5.70;1.20;;;;;;;17.18;100.00;99173.09;5003221;28;20413;-91
2022/07/06 10:25:32;;;;;;;4.60;1.00;;;;;;;17.11;100.00;99179.47;5006693;28;20239;-92
2022/07/06 10:27:58;;;;;;;4.68;1.17;;;;;;;17.12;100.00;99176.78;4992275;28;20037;-93
2022/07/06 10:30:25;;;;;;;5.00;1.08;;;;;;;17.23;100.00;99184.38;4992681;28;20038;-95
2022/07/06 10:32:51;;;;;;;6.00;1.33;;;;;;;17.33;100.00;99185.81;4992159;28;20062;-93
2022/07/06 10:35:20;;;;;;;5.32;1.02;;;;;;;16.99;100.00;99192.09;4989248;28;20027;-93
2022/07/06 10:38:11;;;;;;;3.45;1.10;;;;;;;16.96;100.00;99186.88;4994285;28;20038;-94
2022/07/06 10:41:04;;;;;;;8.88;1.88;;;;;;;17.03;100.00;99184.94;4994132;28;20030;-94
2022/07/06 10:43:34;;;;;;;9.45;1.20;;;;;;;16.92;100.00;99184.38;4987437;28;20036;-94
2022/07/06 10:46:05;;;;;;;7.20;1.23;;;;;;;17.23;100.00;99182.59;4991100;28;20057;-95
2022/07/06 10:48:35;;;;;;;9.68;1.20;;;;;;;17.64;100.00;99166.41;4996332;28;20057;-94
2022/07/06 10:51:04;;;;;;;6.72;1.20;;;;;;;17.51;100.00;99158.03;4992427;28;20065;-93
2022/07/06 10:53:35;;;;;;;4.50;1.00;;;;;;;17.42;100.00;99144.28;4988916;28;20038;-92
2022/07/06 10:56:04;;;;;;;5.00;1.00;;;;;;;17.30;100.00;99145.50;4995214;28;20054;-92
2022/07/06 10:58:45;;;;;;;7.32;1.30;;;;;;;17.23;100.00;99148.34;4995365;28;20073;-93
2022/07/06 11:01:12;;;;;;;5.57;1.20;;;;;;;17.78;100.00;99149.31;4990299;28;20022;-94
2022/07/06 11:03:41;;;;;;;7.68;1.30;;;;;;;17.42;100.00;99146.91;4992129;28;20085;-94
2022/07/06 11:06:09;;;;;;;4.72;1.20;;;;;;;17.25;100.00;99148.28;5004986;28;20026;-96
2022/07/06 11:08:49;;;;;;;5.13;1.13;;;;;;;17.18;100.00;99152.88;4994298;28;20030;-96
2022/07/06 11:11:17;;;;;;;6.53;1.25;;;;;;;17.50;100.00;99161.56;4992257;28;20038;-94
2022/07/06 11:14:09;;;;;;;7.00;1.50;;;;;;;17.34;100.00;99181.41;5002663;28;20137;-94
2022/07/06 11:16:47;;;;;;;8.60;1.58;;;;;;;17.08;100.00;99166.34;4995244;28;20046;-93
2022/07/06 11:19:16;;;;;;;9.07;1.80;;;;;;;17.31;100.00;99179.72;5008301;28;20033;-93
2022/07/06 11:21:47;;;;;;;5.50;1.38;;;;;;;17.03;100.00;99198.97;4997105;28;20026;-93
2022/07/06 11:24:15;;;;;;;8.43;1.67;;;;;;;17.08;100.00;99171.63;5006550;28;20038;-93
2022/07/06 11:26:45;;;;;;;5.03;1.40;;;;;;;17.33;100.00;99151.56;4987282;28;20046;-95
2022/07/06 11:29:17;;;;;;;6.55;1.55;;;;;;;17.09;100.00;99149.66;4987345;28;20038;-96
2022/07/06 11:31:45;;;;;;;5.82;1.40;;;;;;;17.36;100.00;99129.50;4991656;28;20084;-95
2022/07/06 11:34:15;;;;;;;6.00;1.40;;;;;;;17.49;100.00;99143.16;4991704;28;20030;-95
2022/07/06 11:36:41;;;;;;;6.10;1.40;;;;;;;17.84;100.00;99135.91;4996500;28;20038;-95
2022/07/06 11:39:08;;;;;;;8.48;1.27;;;;;;;17.67;100.00;99158.41;5008342;28;20037;-95
2022/07/06 11:41:35;;;;;;;6.13;1.10;;;;;;;17.57;100.00;99168.38;4985551;28;20043;-95
2022/07/06 11:44:01;;;;;;;6.45;1.23;;;;;;;18.35;100.00;99163.28;4988377;28;20102;-93